createdAt,value
2019-05-25T00:01:04.931Z,97780.12
2019-05-25T00:03:39.758Z,97761.73
2019-05-25T00:06:14.219Z,97753.15
2019-05-25T00:08:49.741Z,97754.22
2019-05-25T00:11:25.333Z,97746.45
2019-05-25T00:14:12.420Z,97773.20
2019-05-25T00:16:47.966Z,97760.83
2019-05-25T00:19:21.606Z,97775.27
2019-05-25T00:21:56.521Z,97776.14
2019-05-25T00:24:30.170Z,97768.86
2019-05-25T00:27:05.596Z,97774.91
2019-05-25T00:29:40.724Z,97780.61
2019-05-25T00:32:14.370Z,97775.64
2019-05-25T00:34:48.371Z,97784.80
2019-05-25T00:37:23.783Z,97788.09
2019-05-25T00:39:58.940Z,97787.05
2019-05-25T00:42:32.414Z,97791.43
2019-05-25T00:45:08.379Z,97786.02
2019-05-25T00:47:42.091Z,97795.63
2019-05-25T00:50:16.331Z,97790.97
2019-05-25T00:52:52.657Z,97798.80
2019-05-25T00:55:26.480Z,97792.53
2019-05-25T00:58:01.699Z,97790.22
2019-05-25T01:00:35.317Z,97784.34
2019-05-25T01:03:10.488Z,97794.08
2019-05-25T01:05:45.659Z,97787.78
2019-05-25T01:08:20.791Z,97796.62
2019-05-25T01:10:54.313Z,97789.58
2019-05-25T01:13:29.387Z,97790.81
2019-05-25T01:16:03.075Z,97789.97
2019-05-25T01:18:36.630Z,97800.97
2019-05-25T01:21:14.669Z,97782.29
2019-05-25T01:23:50.338Z,97792.89
2019-05-25T01:26:25.735Z,97797.42
2019-05-25T01:29:03.051Z,97796.36
2019-05-25T01:31:38.160Z,97801.20
2019-05-25T01:34:14.968Z,97796.50
2019-05-25T01:36:50.011Z,97814.41
2019-05-25T01:39:25.051Z,97795.36
2019-05-25T01:41:59.989Z,97800.48
2019-05-25T01:44:35.098Z,97807.63
2019-05-25T01:47:10.372Z,97803.55
2019-05-25T01:49:45.575Z,97806.74
2019-05-25T01:52:23.582Z,97818.20
2019-05-25T01:55:01.446Z,97809.80
2019-05-25T01:57:48.786Z,97810.11
2019-05-25T02:00:18.185Z,97808.42
2019-05-25T02:02:53.749Z,97802.89
2019-05-25T02:05:28.911Z,97803.86
2019-05-25T02:08:05.135Z,97814.45
2019-05-25T02:10:40.400Z,97812.13
2019-05-25T02:13:15.578Z,97803.52
2019-05-25T02:15:50.952Z,97829.45
2019-05-25T02:18:26.462Z,97821.22
2019-05-25T02:21:01.415Z,97837.89
2019-05-25T02:23:36.517Z,97839.95
2019-05-25T02:26:12.286Z,97827.19
2019-05-25T02:28:46.474Z,97825.12
2019-05-25T02:31:20.029Z,97838.95
2019-05-25T02:33:56.076Z,97822.77
2019-05-25T02:36:29.993Z,97831.91
2019-05-25T02:39:04.856Z,97819.59
2019-05-25T02:41:38.416Z,97818.47
2019-05-25T02:44:18.477Z,97827.54
2019-05-25T02:46:52.035Z,97820.67
2019-05-25T02:49:27.720Z,97822.59
2019-05-25T02:52:01.326Z,97816.81
2019-05-25T02:54:35.286Z,97816.20
2019-05-25T02:57:10.285Z,97850.45
2019-05-25T02:59:43.800Z,97817.31
2019-05-25T03:02:17.439Z,97817.19
2019-05-25T03:04:52.353Z,97836.65
2019-05-25T03:07:27.449Z,97817.35
2019-05-25T03:10:03.675Z,97802.62
2019-05-25T03:12:38.983Z,97801.55
2019-05-25T03:15:13.987Z,97791.93
2019-05-25T03:17:47.498Z,97806.36
2019-05-25T03:20:22.073Z,97791.44
2019-05-25T03:22:55.840Z,97797.61
2019-05-25T03:25:29.538Z,97806.86
2019-05-25T03:28:03.368Z,97796.93
2019-05-25T03:30:42.072Z,97804.19
2019-05-25T03:33:17.244Z,97788.94
2019-05-25T03:35:51.561Z,97823.86
2019-05-25T03:38:25.579Z,97811.86
2019-05-25T03:41:00.550Z,97832.53
2019-05-25T03:43:34.527Z,97824.67
2019-05-25T03:46:11.302Z,97824.51
2019-05-25T03:48:46.607Z,97816.98
2019-05-25T03:51:23.113Z,97822.50
2019-05-25T03:53:56.737Z,97811.64
2019-05-25T03:56:30.596Z,97808.95
2019-05-25T03:59:04.514Z,97816.52
2019-05-25T04:01:39.571Z,97815.56
2019-05-25T04:04:14.422Z,97844.55
2019-05-25T04:06:48.113Z,97811.99
2019-05-25T04:09:22.067Z,97815.48
2019-05-25T04:11:56.159Z,97797.80
2019-05-25T04:14:31.293Z,97787.72
2019-05-25T04:17:06.706Z,97795.30
2019-05-25T04:19:42.619Z,97788.05
2019-05-25T04:22:16.908Z,97790.57
2019-05-25T04:24:50.872Z,97786.02
2019-05-25T04:27:24.602Z,97796.81
2019-05-25T04:29:58.417Z,97771.14
2019-05-25T04:32:33.292Z,97773.18
2019-05-25T04:35:09.586Z,97787.56
2019-05-25T04:37:43.186Z,97779.92
2019-05-25T04:40:17.624Z,97775.98
2019-05-25T04:42:51.438Z,97783.70
2019-05-25T04:45:25.020Z,97788.18
2019-05-25T04:47:59.886Z,97783.06
2019-05-25T04:50:33.785Z,97797.17
2019-05-25T04:53:07.583Z,97758.69
2019-05-25T04:55:42.830Z,97778.34
2019-05-25T04:58:18.941Z,97782.80
2019-05-25T05:00:52.687Z,97765.31
2019-05-25T05:03:26.527Z,97774.14
2019-05-25T05:06:01.593Z,97781.48
2019-05-25T05:08:37.335Z,97776.50
2019-05-25T05:11:12.726Z,97782.75
2019-05-25T05:14:03.239Z,97782.75
2019-05-25T05:16:29.157Z,97787.73
2019-05-25T05:19:04.297Z,97779.98
2019-05-25T05:21:40.075Z,97778.71
2019-05-25T05:24:13.652Z,97772.66
2019-05-25T05:26:55.642Z,97767.45
2019-05-25T05:29:22.796Z,97768.00
2019-05-25T05:31:58.150Z,97762.04
2019-05-25T05:34:33.741Z,97758.41
2019-05-25T05:37:07.695Z,97754.69
2019-05-25T05:39:41.832Z,97763.05
2019-05-25T05:42:18.722Z,97758.27
2019-05-25T05:44:55.262Z,97751.25
2019-05-25T05:47:30.108Z,97759.39
2019-05-25T05:50:06.674Z,97755.66
2019-05-25T05:52:49.613Z,97767.35
2019-05-25T05:55:27.647Z,97761.88
2019-05-25T05:58:02.025Z,97756.48
2019-05-25T06:00:37.136Z,97766.67
2019-05-25T06:03:12.098Z,97757.44
2019-05-25T06:05:46.190Z,97747.44
2019-05-25T06:08:20.564Z,97743.55
2019-05-25T06:10:56.009Z,97741.56
2019-05-25T06:13:29.849Z,97757.36
2019-05-25T06:16:03.591Z,97740.05
2019-05-25T06:18:37.577Z,97739.92
2019-05-25T06:21:12.708Z,97746.81
2019-05-25T06:23:48.062Z,97732.67
2019-05-25T06:26:23.251Z,97730.37
2019-05-25T06:28:57.323Z,97745.25
2019-05-25T06:31:33.929Z,97725.13
2019-05-25T06:34:09.425Z,97738.08
2019-05-25T06:36:45.487Z,97729.44
2019-05-25T06:39:21.192Z,97733.91
2019-05-25T06:41:55.277Z,97721.10
2019-05-25T06:44:30.651Z,97750.66
2019-05-25T06:47:05.644Z,97728.11
2019-05-25T06:49:39.467Z,97740.90
2019-05-25T06:52:13.345Z,97746.48
2019-05-25T06:54:48.007Z,97751.52
2019-05-25T06:57:21.528Z,97745.08
2019-05-25T06:59:55.376Z,97734.78
2019-05-25T07:02:30.904Z,97724.39
2019-05-25T07:05:05.038Z,97731.89
2019-05-25T07:07:40.286Z,97736.16
2019-05-25T07:10:16.031Z,97739.05
2019-05-25T07:12:51.196Z,97746.19
2019-05-25T07:15:26.597Z,97755.74
2019-05-25T07:18:01.748Z,97746.19
2019-05-25T07:20:36.543Z,97749.90
2019-05-25T07:23:11.602Z,97744.27
2019-05-25T07:25:46.602Z,97727.09
2019-05-25T07:28:21.788Z,97743.52
2019-05-25T07:30:55.687Z,97757.34
2019-05-25T07:33:29.377Z,97752.05
2019-05-25T07:36:07.303Z,97732.55
2019-05-25T07:38:38.277Z,97720.22
2019-05-25T07:41:13.938Z,97746.37
2019-05-25T07:43:48.623Z,97760.73
2019-05-25T07:46:24.265Z,97742.95
2019-05-25T07:48:59.421Z,97740.80
2019-05-25T07:51:33.069Z,97747.55
2019-05-25T07:54:08.034Z,97757.61
2019-05-25T07:56:43.109Z,97741.23
2019-05-25T07:59:18.300Z,97739.38
2019-05-25T08:01:53.343Z,97762.41
2019-05-25T08:04:28.284Z,97732.28
2019-05-25T08:07:03.796Z,97734.77
2019-05-25T08:09:37.515Z,97743.98
2019-05-25T08:12:13.545Z,97747.45
2019-05-25T08:14:47.102Z,97744.87
2019-05-25T08:17:20.748Z,97737.77
2019-05-25T08:19:55.975Z,97735.66
2019-05-25T08:22:31.028Z,97740.86
2019-05-25T08:25:06.524Z,97738.14
2019-05-25T08:27:41.476Z,97744.03
2019-05-25T08:30:17.055Z,97744.28
2019-05-25T08:32:50.521Z,97745.30
2019-05-25T08:38:02.782Z,97730.75
2019-05-25T08:40:36.441Z,97729.41
2019-05-25T08:43:10.048Z,97727.58
2019-05-25T08:45:43.664Z,97735.19
2019-05-25T08:48:17.435Z,97736.50
2019-05-25T08:50:52.352Z,97730.67
2019-05-25T08:53:39.942Z,97741.44
2019-05-25T08:56:01.109Z,97725.89
2019-05-25T08:58:47.937Z,97740.87
2019-05-25T09:01:11.399Z,97739.24
2019-05-25T09:03:46.412Z,97739.45
2019-05-25T09:06:21.481Z,97740.70
2019-05-25T09:08:54.955Z,97733.93
2019-05-25T09:11:28.548Z,97755.34
2019-05-25T09:14:02.905Z,97738.19
2019-05-25T09:16:38.036Z,97751.64
2019-05-25T09:19:13.262Z,97737.56
2019-05-25T09:22:01.419Z,97740.59
2019-05-25T09:24:23.516Z,97745.34
2019-05-25T09:26:58.978Z,97742.66
2019-05-25T09:29:34.644Z,97742.97
2019-05-25T09:35:27.412Z,97739.45
2019-05-25T09:38:01.009Z,97744.63
2019-05-25T09:40:35.863Z,97733.33
2019-05-25T09:43:10.793Z,97745.77
2019-05-25T09:45:44.675Z,97746.38
2019-05-25T09:48:19.700Z,97755.66
2019-05-25T09:50:53.165Z,97758.34
2019-05-25T09:53:26.900Z,97758.00
2019-05-25T09:56:00.503Z,97762.75
2019-05-25T09:58:34.547Z,97767.16
2019-05-25T10:01:09.467Z,97761.17
2019-05-25T10:03:45.161Z,97756.76
2019-05-25T10:06:18.744Z,97754.83
2019-05-25T10:08:52.351Z,97765.36
2019-05-25T10:11:26.095Z,97774.61
2019-05-25T10:14:01.816Z,97772.41
2019-05-25T10:16:37.454Z,97784.77
2019-05-25T10:19:11.552Z,97778.95
2019-05-25T10:21:45.081Z,97790.13
2019-05-25T10:24:19.053Z,97788.96
2019-05-25T10:26:54.305Z,97801.67
2019-05-25T10:29:36.673Z,97796.11
2019-05-25T10:32:02.579Z,97804.08
2019-05-25T10:34:36.479Z,97808.14
2019-05-25T10:37:11.847Z,97810.00
2019-05-25T10:39:45.767Z,97818.53
2019-05-25T10:42:20.819Z,97823.59
2019-05-25T10:44:54.380Z,97823.73
2019-05-25T10:47:29.752Z,97831.41
2019-05-25T10:50:05.086Z,97832.46
2019-05-25T10:52:38.935Z,97839.78
2019-05-25T10:55:15.667Z,97841.36
2019-05-25T10:57:51.286Z,97840.40
2019-05-25T11:00:25.312Z,97850.20
2019-05-25T11:02:59.054Z,97855.64
2019-05-25T11:05:34.432Z,97861.00
2019-05-25T11:08:08.238Z,97868.42
2019-05-25T11:10:43.314Z,97879.44
2019-05-25T11:13:17.442Z,97880.48
2019-05-25T11:15:51.426Z,97873.70
2019-05-25T11:18:26.556Z,97888.11
2019-05-25T11:21:00.465Z,97895.13
2019-05-25T11:23:36.138Z,97900.59
2019-05-25T11:26:11.089Z,97901.92
2019-05-25T11:28:44.883Z,97916.36
2019-05-25T11:31:18.742Z,97912.61
2019-05-25T11:33:52.455Z,97913.14
2019-05-25T11:36:26.277Z,97920.70
2019-05-25T11:39:01.991Z,97930.00
2019-05-25T11:41:35.907Z,97932.36
2019-05-25T11:44:09.981Z,97937.58
2019-05-25T11:46:43.821Z,97940.02
2019-05-25T11:49:22.344Z,97941.81
2019-05-25T11:51:52.711Z,97943.30
2019-05-25T11:54:27.084Z,97959.18
2019-05-25T11:57:21.572Z,97962.43
2019-05-25T11:59:56.840Z,97958.50
2019-05-25T12:02:31.781Z,97969.33
2019-05-25T12:05:08.018Z,97970.31
2019-05-25T12:07:44.578Z,97962.24
2019-05-25T12:10:18.401Z,97966.97
2019-05-25T12:12:52.398Z,97969.47
2019-05-25T12:15:26.034Z,97971.94
2019-05-25T12:18:01.141Z,97970.88
2019-05-25T12:20:34.696Z,97976.52
2019-05-25T12:23:08.754Z,97979.78
2019-05-25T12:25:49.871Z,97976.36
2019-05-25T12:28:26.727Z,97976.48
2019-05-25T12:31:01.859Z,97979.64
2019-05-25T12:33:37.467Z,97980.63
2019-05-25T12:36:12.272Z,97988.14
2019-05-25T12:38:45.829Z,97985.88
2019-05-25T12:41:21.057Z,97990.26
2019-05-25T12:43:55.443Z,98003.09
2019-05-25T12:46:30.804Z,98000.80
2019-05-25T12:49:04.329Z,98002.73
2019-05-25T12:51:39.670Z,98003.35
2019-05-25T12:54:14.692Z,98011.08
2019-05-25T12:56:48.571Z,98017.05
2019-05-25T12:59:24.061Z,98014.17
2019-05-25T13:01:57.855Z,98014.68
2019-05-25T13:04:31.677Z,98021.59
2019-05-25T13:07:05.679Z,98013.05
2019-05-25T13:09:39.595Z,98015.65
2019-05-25T13:12:13.256Z,98018.70
2019-05-25T13:14:47.036Z,98023.83
2019-05-25T13:17:20.948Z,98032.94
2019-05-25T13:19:56.087Z,98034.92
2019-05-25T13:22:30.910Z,98039.19
2019-05-25T13:25:06.466Z,98036.48
2019-05-25T13:27:40.242Z,98047.01
2019-05-25T13:30:15.883Z,98053.48
2019-05-25T13:32:50.816Z,98050.24
2019-05-25T13:35:25.722Z,98059.28
2019-05-25T13:37:59.489Z,98065.84
2019-05-25T13:40:34.595Z,98073.66
2019-05-25T13:43:09.733Z,98073.79
2019-05-25T13:45:46.008Z,98073.18
2019-05-25T13:48:19.275Z,98071.46
2019-05-25T13:50:54.111Z,98068.44
2019-05-25T13:53:27.916Z,98061.45
2019-05-25T13:56:01.719Z,98078.63
2019-05-25T13:58:39.133Z,98077.63
2019-05-25T14:01:27.401Z,98079.49
2019-05-25T14:03:48.507Z,98072.79
2019-05-25T14:06:25.279Z,98079.68
2019-05-25T14:08:58.757Z,98077.00
2019-05-25T14:11:33.932Z,98073.59
2019-05-25T14:14:08.719Z,98078.80
2019-05-25T14:16:42.952Z,98083.19
2019-05-25T14:19:18.262Z,98069.52
2019-05-25T14:21:52.853Z,98080.53
2019-05-25T14:24:26.675Z,98076.74
2019-05-25T14:27:00.261Z,98079.44
2019-05-25T14:29:34.035Z,98073.73
2019-05-25T14:32:07.724Z,98079.84
2019-05-25T14:34:42.840Z,98081.00
2019-05-25T14:37:16.594Z,98068.94
2019-05-25T14:39:53.152Z,98070.33
2019-05-25T14:42:29.318Z,98082.31
2019-05-25T14:45:13.142Z,98081.74
2019-05-25T14:47:48.685Z,98081.14
2019-05-25T14:50:23.197Z,98075.47
2019-05-25T14:52:58.566Z,98078.59
2019-05-25T14:55:32.403Z,98079.11
2019-05-25T14:58:07.992Z,98070.66
2019-05-25T15:00:42.132Z,98064.36
2019-05-25T15:03:15.448Z,98070.48
2019-05-25T15:05:50.728Z,98077.95
2019-05-25T15:08:26.642Z,98073.73
2019-05-25T15:11:00.318Z,98078.32
2019-05-25T15:13:35.889Z,98084.09
2019-05-25T15:16:11.084Z,98088.67
2019-05-25T15:18:44.682Z,98095.02
2019-05-25T15:21:19.971Z,98097.27
2019-05-25T15:23:55.081Z,98097.19
2019-05-25T15:26:30.019Z,98106.19
2019-05-25T15:29:03.820Z,98106.48
2019-05-25T15:31:38.880Z,98119.68
2019-05-25T15:34:12.525Z,98118.73
2019-05-25T15:36:47.454Z,98121.36
2019-05-25T15:39:22.645Z,98123.22
2019-05-25T15:41:57.601Z,98123.48
2019-05-25T15:44:33.045Z,98124.34
2019-05-25T15:47:08.006Z,98126.39
2019-05-25T15:49:41.692Z,98122.62
2019-05-25T15:52:16.804Z,98115.28
2019-05-25T15:54:51.905Z,98119.83
2019-05-25T15:57:26.252Z,98126.84
2019-05-25T16:00:01.271Z,98129.20
2019-05-25T16:02:37.264Z,98147.28
2019-05-25T16:05:11.429Z,98147.47
2019-05-25T16:07:52.249Z,98154.50
2019-05-25T16:10:26.026Z,98173.88
2019-05-25T16:13:01.108Z,98196.23
2019-05-25T16:15:34.647Z,98215.59
2019-05-25T16:18:09.860Z,98244.73
2019-05-25T16:20:45.041Z,98247.37
2019-05-25T16:23:19.833Z,98247.78
2019-05-25T16:25:54.805Z,98240.86
2019-05-25T16:28:30.685Z,98235.27
2019-05-25T16:31:05.732Z,98235.28
2019-05-25T16:33:39.620Z,98244.04
2019-05-25T16:36:13.394Z,98263.59
2019-05-25T16:38:48.508Z,98273.38
2019-05-25T16:41:22.089Z,98282.15
2019-05-25T16:43:59.142Z,98277.17
2019-05-25T16:46:32.160Z,98291.92
2019-05-25T16:49:06.100Z,98287.11
2019-05-25T16:51:41.502Z,98290.73
2019-05-25T16:54:16.503Z,98287.94
2019-05-25T16:56:51.656Z,98277.70
2019-05-25T16:59:25.311Z,98274.14
2019-05-25T17:02:00.525Z,98263.95
2019-05-25T17:04:35.606Z,98260.73
2019-05-25T17:07:10.488Z,98268.89
2019-05-25T17:09:44.409Z,98277.45
2019-05-25T17:12:17.949Z,98274.84
2019-05-25T17:14:51.701Z,98267.41
2019-05-25T17:17:26.570Z,98270.41
2019-05-25T17:20:00.214Z,98269.61
2019-05-25T17:22:33.657Z,98271.56
2019-05-25T17:25:08.872Z,98266.68
2019-05-25T17:27:43.855Z,98268.51
2019-05-25T17:30:19.422Z,98265.09
2019-05-25T17:32:53.946Z,98256.31
2019-05-25T17:35:29.123Z,98256.44
2019-05-25T17:38:02.727Z,98263.90
2019-05-25T17:40:37.988Z,98266.88
2019-05-25T17:43:13.682Z,98260.63
2019-05-25T17:45:48.963Z,98257.72
2019-05-25T17:48:22.368Z,98266.38
2019-05-25T17:50:56.158Z,98262.73
2019-05-25T17:53:29.771Z,98265.27
2019-05-25T17:56:04.817Z,98262.17
2019-05-25T17:58:40.065Z,98262.71
2019-05-25T18:01:15.466Z,98270.09
2019-05-25T18:04:04.868Z,98271.70
2019-05-25T18:06:24.614Z,98271.30
2019-05-25T18:08:58.443Z,98269.59
2019-05-25T18:11:33.539Z,98292.39
2019-05-25T18:14:07.744Z,98277.69
2019-05-25T18:16:43.357Z,98275.50
2019-05-25T18:19:18.792Z,98282.83
2019-05-25T18:21:52.581Z,98288.39
2019-05-25T18:24:28.416Z,98285.17
2019-05-25T18:27:01.991Z,98284.25
2019-05-25T18:29:36.185Z,98285.42
2019-05-25T18:32:11.335Z,98288.33
2019-05-25T18:37:18.359Z,98292.30
2019-05-25T18:39:52.198Z,98283.02
2019-05-25T18:42:29.495Z,98288.03
2019-05-25T18:45:02.054Z,98292.05
2019-05-25T18:47:35.905Z,98287.67
2019-05-25T18:50:14.923Z,98296.30
2019-05-25T18:52:49.125Z,98305.31
2019-05-25T18:55:23.386Z,98284.38
2019-05-25T18:57:56.985Z,98295.67
2019-05-25T19:00:33.750Z,98310.08
2019-05-25T19:03:07.702Z,98296.77
2019-05-25T19:05:42.742Z,98295.02
2019-05-25T19:08:16.275Z,98306.72
2019-05-25T19:10:52.666Z,98301.22
2019-05-25T19:13:27.872Z,98312.06
2019-05-25T19:16:02.764Z,98305.47
2019-05-25T19:18:38.196Z,98306.14
2019-05-25T19:21:13.282Z,98306.77
2019-05-25T19:23:47.293Z,98298.47
2019-05-25T19:26:22.475Z,98295.78
2019-05-25T19:28:55.995Z,98298.87
2019-05-25T19:31:31.208Z,98294.52
2019-05-25T19:34:06.971Z,98291.52
2019-05-25T19:36:42.636Z,98290.48
2019-05-25T19:39:16.224Z,98302.41
2019-05-25T19:41:50.379Z,98298.38
2019-05-25T19:44:26.503Z,98293.16
2019-05-25T19:47:00.761Z,98290.88
2019-05-25T19:49:36.264Z,98300.70
2019-05-25T19:52:11.515Z,98298.66
2019-05-25T19:54:46.867Z,98305.22
2019-05-25T19:57:20.800Z,98302.39
2019-05-25T19:59:56.172Z,98304.64
2019-05-25T20:02:31.793Z,98314.26
2019-05-25T20:05:15.724Z,98312.80
2019-05-25T20:07:41.245Z,98310.72
2019-05-25T20:10:15.499Z,98312.62
2019-05-25T20:12:50.934Z,98305.91
2019-05-25T20:15:26.473Z,98304.95
2019-05-25T20:18:01.651Z,98301.52
2019-05-25T20:20:36.704Z,98309.20
2019-05-25T20:23:11.785Z,98305.56
2019-05-25T20:25:45.528Z,98319.05
2019-05-25T20:28:20.691Z,98316.39
2019-05-25T20:30:54.978Z,98322.92
2019-05-25T20:33:28.718Z,98319.82
2019-05-25T20:36:03.865Z,98331.10
2019-05-25T20:38:37.552Z,98329.70
2019-05-25T20:41:11.256Z,98329.63
2019-05-25T20:43:45.172Z,98333.97
2019-05-25T20:46:19.910Z,98333.39
2019-05-25T20:48:53.752Z,98338.83
2019-05-25T20:51:28.331Z,98349.36
2019-05-25T20:54:03.835Z,98350.04
2019-05-25T20:56:39.032Z,98340.05
2019-05-25T20:59:12.566Z,98342.02
2019-05-25T21:01:48.133Z,98336.20
2019-05-25T21:04:23.269Z,98333.67
2019-05-25T21:06:58.484Z,98327.40
2019-05-25T21:09:32.891Z,98334.86
2019-05-25T21:12:09.800Z,98337.27
2019-05-25T21:14:43.502Z,98349.72
2019-05-25T21:17:18.931Z,98338.81
2019-05-25T21:19:54.137Z,98340.58
2019-05-25T21:22:29.396Z,98331.09
2019-05-25T21:25:05.997Z,98334.80
2019-05-25T21:27:39.912Z,98332.98
2019-05-25T21:30:15.341Z,98334.27
2019-05-25T21:32:50.750Z,98343.95
2019-05-25T21:35:26.642Z,98337.51
2019-05-25T21:38:00.450Z,98341.75
2019-05-25T21:40:33.939Z,98350.23
2019-05-25T21:43:08.820Z,98344.83
2019-05-25T21:45:44.010Z,98341.18
2019-05-25T21:48:19.103Z,98346.95
2019-05-25T21:50:53.949Z,98351.86
2019-05-25T21:53:29.460Z,98354.36
2019-05-25T21:56:04.415Z,98353.84
2019-05-25T21:58:40.260Z,98361.39
2019-05-25T22:01:14.256Z,98362.58
2019-05-25T22:03:49.914Z,98353.34
2019-05-25T22:06:24.545Z,98361.05
2019-05-25T22:08:59.880Z,98371.78
2019-05-25T22:11:34.861Z,98379.82
2019-05-25T22:14:08.810Z,98372.39
2019-05-25T22:16:43.832Z,98375.09
2019-05-25T22:19:19.038Z,98368.47
2019-05-25T22:21:52.675Z,98369.80
2019-05-25T22:24:27.693Z,98374.36
2019-05-25T22:27:01.570Z,98374.80
2019-05-25T22:29:36.848Z,98376.55
2019-05-25T22:32:10.655Z,98375.84
2019-05-25T22:34:45.528Z,98371.80
2019-05-25T22:37:19.449Z,98370.75
2019-05-25T22:39:54.365Z,98359.77
2019-05-25T22:42:28.149Z,98360.63
2019-05-25T22:45:02.037Z,98350.69
2019-05-25T22:47:35.584Z,98352.75
2019-05-25T22:50:09.742Z,98350.65
2019-05-25T22:52:43.868Z,98346.61
2019-05-25T22:55:18.879Z,98341.70
2019-05-25T22:57:53.854Z,98344.11
2019-05-25T23:00:27.553Z,98334.78
2019-05-25T23:03:03.691Z,98339.81
2019-05-25T23:05:37.461Z,98340.16
2019-05-25T23:08:11.176Z,98340.99
2019-05-25T23:10:44.885Z,98344.79
2019-05-25T23:13:18.631Z,98340.09
2019-05-25T23:15:53.924Z,98351.83
2019-05-25T23:18:27.637Z,98346.43
2019-05-25T23:21:01.288Z,98353.99
2019-05-25T23:23:36.438Z,98356.83
2019-05-25T23:26:10.004Z,98355.44
2019-05-25T23:28:44.053Z,98367.88
2019-05-25T23:31:19.250Z,98368.28
2019-05-25T23:33:52.727Z,98376.19
2019-05-25T23:36:27.609Z,98381.84
2019-05-25T23:39:02.634Z,98382.98
2019-05-25T23:41:36.353Z,98386.04
2019-05-25T23:44:10.388Z,98381.03
2019-05-25T23:46:44.195Z,98382.67
2019-05-25T23:49:18.063Z,98384.42
2019-05-25T23:51:51.607Z,98377.14
2019-05-25T23:54:26.012Z,98384.58
2019-05-25T23:56:59.790Z,98384.67
2019-05-25T23:59:35.232Z,98389.83
